Hauptseite
METAR-TAF:

METAR-TAF

Flughäfen :

Flugplatz St. Gallen-Altenrhein

St. Gallen, Schweiz

Breite: 47-29-06N, Länge: 009-33-43E, Höhe: 398 m

Beobachtung

Neuester Wetterbericht von vor 18 Minuten, um 06:50 UTC
Wind 2 kt aus Ost
Temperatur -1°C
Luftfeuchtigkeit 100%
Luftdruck 1031 hPa
Sichtweite 10 km oder mehr
keine Wolken unter 1500 m und keine Kumulonimbus oder Gewitterwolken

METAR: LSZR 010650Z 09002KT CAVOK M01/M01 Q1031 NOSIG RMK B

Zeit: 08:08 (07:08 UTC)

Prognose

Neuester Wetterbericht von vor 1 Stunde und 43 Minuten, um 05:25 UTC
Gültige Prognose vom 01 um 06 UTC bis 01 um 15 UTC
Wind 2 kt aus unterschiedlichen Richtungen
Sichtweite 10 km oder mehr
keine Wolken unter 1500 m und keine Kumulonimbus oder Gewitterwolken
Wahrscheinlichkeit 40%
vom 01 um 06 UTC bis 01 um 08 UTC
Sichtweite: 6000 m
Flacher Nebel

TAF: LSZR 010525Z 0106/0115 VRB02KT CAVOK PROB40 0106/0108 6000 MIFG NSC

Wetterbeobachtungen und Prognosen von mehr als 4000 Flughäfen (METAR und TAF Bericht).

Die verfügbaren Stationen werden durch gelbe und rote Markierungen auf der Karte dargestellt.

Führen Sie die Maus auf sie, um den Namen der Station zu sehen.

Darauf klicken, um die Beobachtung von Wetterbeobachtungen und Prognosen zu sehen.

Um die Karte zu ändern : klicken Sie auf den grünen Tasten mit einem schwarzen Kreuz Zum Vergrößern, auf den grünen Button mit einem Gedankenstrich zu verkleinern, oder auf die grünen Pfeile für benachbarte Karten.


METAR-TAF: